Weather observations for the past three days for
McAllen, Miller International Airport
Metric (Imperial)
Date Time (cdt) Wind (kph) Vis. (km) Weather Sky Cond. Temperature (ºC) Relative Humidity Wind Chill (°C) Heat Index (°C) Pressure Precipitation (cm)
Air Dwpt 6 hour altimeter (cm) sea level (mb) 1 hr 3 hr 6 hr
Max. Min.
30 21:53 SE 33 G 46 16.09 Fair and Breezy CLR 31.1 23.3 63% 36 76 1012.8
30 20:53 SE 31 16.09 Fair CLR 32.2 22.8 58% 37 75.92 1012.0
30 19:53 SE 35 G 46 16.09 Fair and Breezy CLR 33.9 22.2 50% 38 75.9 1011.5
30 18:53 SE 33 G 48 16.09 Fair and Breezy CLR 36.1 21.7 40.6 36.1 43% 41 75.82 1010.7
30 17:53 SE 30 16.09 Fair CLR 37.8 21.1 38% 42 75.79 1010.3
30 16:53 SE 28 G 43 16.09 A Few Clouds FEW085 39.4 19.4 31% 42 75.79 1010.1
30 15:53 E 28 G 44 16.09 Partly Cloudy SCT070 40 20.6 33% 44 75.84 1010.8
30 14:53 SE 22 G 41 16.09 Fair CLR 39.4 20 32% 43 75.92 1012.0
30 13:53 SE 22 G 37 16.09 Fair CLR 39.4 20 32% 43 76.02 1013.1
30 12:53 S 19 16.09 Fair CLR 37.8 20 37.8 27.2 35% 41 76.07 1013.9
30 11:53 SE 26 G 37 16.09 Fair CLR 35.6 22.2 46% 40 76.15 1014.9
30 10:53 SE 28 G 39 16.09 Fair CLR 34.4 22.8 51% 40 76.17 1015.3
30 09:53 S 19 G 35 16.09 Fair CLR 32.2 24.4 63% 39 76.15 1015.1
30 08:53 SE 19 16.09 Fair CLR 29.4 25 77% 35 76.15 1014.9
30 07:53 SE 15 16.09 Fair CLR 27.8 25 85% 32 76.1 1014.5
30 06:53 E 13 16.09 Fair CLR 27.2 24.4 28.9 27.2 85% 31 76.07 1014.1
30 05:53 SE 13 16.09 Fair CLR 27.2 24.4 85% 31 76.07 1014.0
30 04:53 SE 13 16.09 Fair CLR 27.8 24.4 82% 32 76.07 1013.9
30 03:53 SE 11 16.09 Fair CLR 28.3 25 82% 33 76.1 1014.2
30 02:53 SE 11 16.09 Fair CLR 28.3 25 82% 33 76.12 1014.6
30 01:53 SE 11 16.09 Fair CLR 28.9 25 80% 34 76.15 1015.0
30 00:53 SE 17 16.09 Fair CLR 28.9 25 35.6 28.9 80% 34 76.17 1015.3
29 23:53 SE 20 16.09 Fair CLR 29.4 23.9 72% 34 76.17 1015.4
29 22:53 SE 24 16.09 Fair CLR 30 23.3 67% 34 76.17 1015.3
29 21:53 SE 31 16.09 Fair CLR 31.1 23.3 63% 36 76.12 1014.6
29 20:53 SE 31 G 41 16.09 Fair CLR 31.7 22.8 59% 36 76.07 1014.0
29 19:53 SE 28 G 44 16.09 Fair CLR 33.3 22.2 52% 38 76.02 1013.2
29 18:53 SE 31 G 46 16.09 Fair CLR 35.6 22.2 39.4 35.6 46% 40 75.97 1012.5
29 17:53 E 28 G 41 16.09 Fair CLR 36.7 22.2 43% 42 75.95 1012.3
29 16:53 E 28 G 41 16.09 Partly Cloudy SCT060 SCT080 37.2 22.2 42% 42 75.95 1012.4
29 15:53 E 24 16.09 Partly Cloudy FEW060 FEW075 SCT090 39.4 22.2 37% 45 76 1012.9
29 14:53 E 26 G 43 16.09 Partly Cloudy SCT070 37.2 22.8 43% 43 76.07 1013.9
29 13:53 Vrbl 9 G 31 16.09 Fair CLR 37.2 20 37% 40 76.17 1015.2
29 12:53 E 17 G 31 16.09 A Few Clouds FEW055 36.1 21.7 36.7 26.7 43% 41 76.23 1016.0
29 11:53 E 15 16.09 Partly Cloudy SCT045 33.9 22.8 52% 39 76.3 1017.0
29 10:53 S 17 16.09 Fair CLR 33.3 23.3 56% 39 76.3 1017.1
29 09:53 SE 26 16.09 Fair CLR 31.7 24.4 65% 38 76.25 1016.5
29 08:53 SE 19 16.09 Fair CLR 29.4 25 77% 35 76.25 1016.2
29 07:53 E 13 16.09 Fair CLR 27.8 25 85% 32 76.2 1015.8
29 06:53 SE 9 16.09 Fair CLR 27.2 24.4 28.9 26.7 85% 31 76.17 1015.3
29 05:53 SE 9 16.09 Fair CLR 27.8 25 85% 32 76.17 1015.4
29 04:53 SE 9 16.09 Fair CLR 27.2 25 88% 31 76.17 1015.1
29 03:53 SE 7 16.09 Fair CLR 27.8 24.4 82% 32 76.15 1014.9
29 02:53 SE 11 16.09 Fair CLR 27.8 24.4 82% 32 76.1 1014.3
29 01:53 SE 11 16.09 Fair CLR 28.3 24.4 79% 33 76.17 1015.1
29 00:53 S 11 16.09 Fair CLR 28.9 24.4 33.9 28.3 77% 34 76.2 1015.5
28 23:53 SE 11 16.09 Fair CLR 28.9 23.9 74% 33 76.25 1016.1
28 22:53 SE 17 16.09 Fair CLR 29.4 23.9 72% 34 76.23 1015.9
28 21:53 SE 17 16.09 Fair CLR 30 23.3 67% 34 76.17 1015.3
28 20:53 SE 26 16.09 Fair CLR 31.7 22.8 59% 36 76.12 1014.7
28 19:53 SE 31 16.09 Fair CLR 32.8 22.2 54% 37 76.02 1013.3
28 18:53 SE 24 G 48 16.09 Fair CLR 33.3 22.8 40 30.6 54% 38 76 1012.9 0.13 0.41
28 17:53 SE 28 G 46 8.05 Rain FEW028 OVC070 31.1 23.9 66% 37 75.97 1012.5 0.28
28 16:53 SE 13 16.09 Partly Cloudy FEW070 SCT090 38.9 19.4 32% 42 75.95 1012.0
28 15:53 E 17 16.09 A Few Clouds FEW075 38.9 20 33% 42 76 1012.8
28 14:53 E 19 16.09 A Few Clouds FEW070 37.8 18.9 33% 40 76.05 1013.6
28 13:53 SE 19 G 30 14.48 A Few Clouds FEW065 38.3 19.4 33% 41 76.12 1014.6
28 12:53 E 9 16.09 Fair CLR 37.2 20.6 38.9 26.1 38% 41 76.2 1015.5
28 11:53 SE 17 16.09 Fair CLR 36.1 21.7 43% 41 76.23 1015.9
28 10:53 S 17 16.09 Fair CLR 33.9 23.3 54% 40 76.23 1016.1
28 09:53 SE 22 16.09 Fair CLR 32.2 23.9 62% 38 76.23 1015.9
28 08:53 SE 13 16.09 Fair CLR 29.4 25 77% 35 76.2 1015.7
28 06:53 SE 9 16.09 Fair CLR 26.1 23.9 28.9 26.1 88% 28 76.12 1014.6
28 05:53 SE 13 16.09 Fair CLR 26.1 23.9 88% 28 76.1 1014.1
28 04:53 SE 9 16.09 Fair CLR 26.7 23.9 85% 29 76.07 1014.0
28 03:53 SE 15 16.09 Fair CLR 27.8 23.9 79% 32 76.1 1014.1
28 02:53 SE 11 16.09 Fair CLR 27.8 23.9 79% 32 76.12 1014.6
28 01:53 SE 11 16.09 Fair CLR 28.3 23.9 77% 32 76.12 1014.7
28 00:53 SE 17 16.09 Fair CLR 28.9 23.9 35.6 28.9 74% 33 76.1 1014.3
27 23:53 SE 17 16.09 Fair CLR 29.4 23.9 72% 34 76.1 1014.4
27 22:53 SE 20 G 33 16.09 Fair CLR 30 23.3 67% 34 76.1 1014.2
Date Time (cdt) Wind (kph) Vis. (km) Weather Sky Cond. Air Dwpt Max. Min. Relative Humidity Wind Chill (°C) Heat Index (°C) altimeter (cm) sea level (mb) 1 hr 3 hr 6 hr
6 hour
Temperature (ºC) Pressure Precipitation (cm)